sensor_id;sensor_type;location;lat;lon;timestamp;P1;durP1;ratioP1;P2;durP2;ratioP2
19951;SDS011;10137;49.406;19.484;2023-02-28T00:01:36;21.97;;;11.37;;
19951;SDS011;10137;49.406;19.484;2023-02-28T00:04:05;21.10;;;11.67;;
19951;SDS011;10137;49.406;19.484;2023-02-28T00:06:35;19.70;;;10.90;;
19951;SDS011;10137;49.406;19.484;2023-02-28T00:09:03;18.87;;;10.07;;
19951;SDS011;10137;49.406;19.484;2023-02-28T00:11:32;21.53;;;9.83;;
19951;SDS011;10137;49.406;19.484;2023-02-28T00:14:00;20.43;;;10.70;;
19951;SDS011;10137;49.406;19.484;2023-02-28T00:16:29;20.77;;;11.17;;
19951;SDS011;10137;49.406;19.484;2023-02-28T00:18:57;24.47;;;11.77;;
19951;SDS011;10137;49.406;19.484;2023-02-28T00:21:27;24.13;;;12.93;;
19951;SDS011;10137;49.406;19.484;2023-02-28T00:23:55;19.30;;;10.47;;
19951;SDS011;10137;49.406;19.484;2023-02-28T00:26:23;23.13;;;10.80;;
19951;SDS011;10137;49.406;19.484;2023-02-28T00:28:51;20.03;;;11.10;;
19951;SDS011;10137;49.406;19.484;2023-02-28T00:31:19;22.97;;;11.20;;
19951;SDS011;10137;49.406;19.484;2023-02-28T00:33:48;19.87;;;11.30;;
19951;SDS011;10137;49.406;19.484;2023-02-28T00:36:18;18.07;;;9.03;;
19951;SDS011;10137;49.406;19.484;2023-02-28T00:38:48;23.03;;;11.50;;
19951;SDS011;10137;49.406;19.484;2023-02-28T00:41:16;22.10;;;9.93;;
19951;SDS011;10137;49.406;19.484;2023-02-28T00:43:45;16.83;;;9.80;;
19951;SDS011;10137;49.406;19.484;2023-02-28T00:46:17;19.27;;;9.20;;
19951;SDS011;10137;49.406;19.484;2023-02-28T00:48:46;15.43;;;8.83;;
19951;SDS011;10137;49.406;19.484;2023-02-28T00:51:14;25.83;;;12.30;;
19951;SDS011;10137;49.406;19.484;2023-02-28T00:53:42;19.43;;;10.23;;
19951;SDS011;10137;49.406;19.484;2023-02-28T00:56:10;12.97;;;7.67;;
19951;SDS011;10137;49.406;19.484;2023-02-28T00:58:39;10.60;;;5.87;;
19951;SDS011;10137;49.406;19.484;2023-02-28T01:01:07;10.87;;;6.17;;
19951;SDS011;10137;49.406;19.484;2023-02-28T01:03:35;10.27;;;6.07;;
19951;SDS011;10137;49.406;19.484;2023-02-28T01:06:02;11.47;;;5.73;;
19951;SDS011;10137;49.406;19.484;2023-02-28T01:08:31;12.13;;;7.17;;
19951;SDS011;10137;49.406;19.484;2023-02-28T01:11:09;11.83;;;6.10;;
19951;SDS011;10137;49.406;19.484;2023-02-28T01:13:40;10.50;;;5.73;;
19951;SDS011;10137;49.406;19.484;2023-02-28T01:16:09;12.73;;;5.60;;
19951;SDS011;10137;49.406;19.484;2023-02-28T01:18:37;15.70;;;5.33;;
19951;SDS011;10137;49.406;19.484;2023-02-28T01:21:06;9.23;;;4.93;;
19951;SDS011;10137;49.406;19.484;2023-02-28T01:23:35;8.50;;;4.97;;
19951;SDS011;10137;49.406;19.484;2023-02-28T01:26:07;8.33;;;4.43;;
19951;SDS011;10137;49.406;19.484;2023-02-28T01:28:38;8.93;;;5.00;;
19951;SDS011;10137;49.406;19.484;2023-02-28T01:31:09;10.13;;;4.90;;
19951;SDS011;10137;49.406;19.484;2023-02-28T01:33:38;7.13;;;4.70;;
19951;SDS011;10137;49.406;19.484;2023-02-28T01:36:10;7.70;;;4.57;;
19951;SDS011;10137;49.406;19.484;2023-02-28T01:38:39;9.10;;;5.00;;
19951;SDS011;10137;49.406;19.484;2023-02-28T01:41:12;12.60;;;6.40;;
19951;SDS011;10137;49.406;19.484;2023-02-28T01:44:01;9.43;;;5.60;;
19951;SDS011;10137;49.406;19.484;2023-02-28T01:46:32;9.13;;;5.10;;
19951;SDS011;10137;49.406;19.484;2023-02-28T01:49:05;6.33;;;4.40;;
19951;SDS011;10137;49.406;19.484;2023-02-28T01:51:38;8.87;;;4.87;;
19951;SDS011;10137;49.406;19.484;2023-02-28T01:54:12;8.87;;;5.00;;
19951;SDS011;10137;49.406;19.484;2023-02-28T01:56:46;9.87;;;4.90;;
19951;SDS011;10137;49.406;19.484;2023-02-28T01:59:20;9.97;;;5.10;;
19951;SDS011;10137;49.406;19.484;2023-02-28T02:01:51;10.50;;;4.73;;
19951;SDS011;10137;49.406;19.484;2023-02-28T02:04:21;10.90;;;4.87;;
19951;SDS011;10137;49.406;19.484;2023-02-28T02:06:52;9.10;;;5.00;;
19951;SDS011;10137;49.406;19.484;2023-02-28T02:09:21;7.13;;;4.33;;
19951;SDS011;10137;49.406;19.484;2023-02-28T02:11:50;10.33;;;4.93;;
19951;SDS011;10137;49.406;19.484;2023-02-28T02:14:24;8.63;;;5.00;;
19951;SDS011;10137;49.406;19.484;2023-02-28T02:17:04;9.20;;;4.50;;
19951;SDS011;10137;49.406;19.484;2023-02-28T02:25:44;8.53;;;5.07;;
19951;SDS011;10137;49.406;19.484;2023-02-28T02:28:35;10.87;;;5.63;;
19951;SDS011;10137;49.406;19.484;2023-02-28T02:34:38;9.63;;;5.20;;
19951;SDS011;10137;49.406;19.484;2023-02-28T02:37:15;12.17;;;6.57;;
19951;SDS011;10137;49.406;19.484;2023-02-28T02:39:56;19.47;;;8.77;;
19951;SDS011;10137;49.406;19.484;2023-02-28T02:42:31;13.70;;;6.07;;
19951;SDS011;10137;49.406;19.484;2023-02-28T02:45:12;9.77;;;5.90;;
19951;SDS011;10137;49.406;19.484;2023-02-28T02:47:43;10.30;;;5.97;;
19951;SDS011;10137;49.406;19.484;2023-02-28T02:50:15;9.20;;;5.50;;
19951;SDS011;10137;49.406;19.484;2023-02-28T02:52:49;8.87;;;5.57;;
19951;SDS011;10137;49.406;19.484;2023-02-28T02:55:21;10.13;;;6.07;;
19951;SDS011;10137;49.406;19.484;2023-02-28T02:57:52;8.97;;;5.67;;
19951;SDS011;10137;49.406;19.484;2023-02-28T03:00:24;12.10;;;6.47;;
19951;SDS011;10137;49.406;19.484;2023-02-28T03:02:57;12.00;;;6.17;;
19951;SDS011;10137;49.406;19.484;2023-02-28T03:05:28;11.87;;;5.53;;
19951;SDS011;10137;49.406;19.484;2023-02-28T03:08:02;9.17;;;5.70;;
19951;SDS011;10137;49.406;19.484;2023-02-28T03:10:33;11.90;;;6.13;;
19951;SDS011;10137;49.406;19.484;2023-02-28T03:16:05;10.13;;;5.37;;
19951;SDS011;10137;49.406;19.484;2023-02-28T03:19:00;10.43;;;5.43;;
19951;SDS011;10137;49.406;19.484;2023-02-28T03:21:40;9.60;;;5.40;;
19951;SDS011;10137;49.406;19.484;2023-02-28T03:24:11;8.90;;;5.07;;
19951;SDS011;10137;49.406;19.484;2023-02-28T03:26:48;9.33;;;5.30;;
19951;SDS011;10137;49.406;19.484;2023-02-28T03:29:23;10.30;;;5.37;;
19951;SDS011;10137;49.406;19.484;2023-02-28T03:31:59;12.67;;;6.53;;
19951;SDS011;10137;49.406;19.484;2023-02-28T03:34:31;9.83;;;5.37;;
19951;SDS011;10137;49.406;19.484;2023-02-28T03:37:05;12.70;;;6.57;;
19951;SDS011;10137;49.406;19.484;2023-02-28T03:39:38;18.17;;;9.27;;
19951;SDS011;10137;49.406;19.484;2023-02-28T03:42:11;13.03;;;6.03;;
19951;SDS011;10137;49.406;19.484;2023-02-28T03:44:42;10.00;;;5.60;;
19951;SDS011;10137;49.406;19.484;2023-02-28T03:47:13;14.70;;;5.90;;
19951;SDS011;10137;49.406;19.484;2023-02-28T03:49:46;10.30;;;5.70;;
19951;SDS011;10137;49.406;19.484;2023-02-28T03:52:18;15.03;;;6.60;;
19951;SDS011;10137;49.406;19.484;2023-02-28T03:54:51;11.30;;;6.57;;
19951;SDS011;10137;49.406;19.484;2023-02-28T03:57:32;20.47;;;9.37;;
19951;SDS011;10137;49.406;19.484;2023-02-28T04:00:05;28.50;;;12.90;;
19951;SDS011;10137;49.406;19.484;2023-02-28T04:02:35;12.70;;;6.80;;
19951;SDS011;10137;49.406;19.484;2023-02-28T04:05:04;10.67;;;6.23;;
19951;SDS011;10137;49.406;19.484;2023-02-28T04:07:34;9.43;;;5.57;;
19951;SDS011;10137;49.406;19.484;2023-02-28T04:10:02;16.20;;;8.53;;
19951;SDS011;10137;49.406;19.484;2023-02-28T04:12:31;17.83;;;8.43;;
19951;SDS011;10137;49.406;19.484;2023-02-28T04:14:59;17.27;;;9.17;;
19951;SDS011;10137;49.406;19.484;2023-02-28T04:17:27;17.50;;;8.50;;
19951;SDS011;10137;49.406;19.484;2023-02-28T04:19:55;13.67;;;8.00;;
19951;SDS011;10137;49.406;19.484;2023-02-28T04:22:24;14.33;;;8.60;;
19951;SDS011;10137;49.406;19.484;2023-02-28T04:24:54;11.13;;;7.13;;
19951;SDS011;10137;49.406;19.484;2023-02-28T04:27:22;10.17;;;6.80;;
19951;SDS011;10137;49.406;19.484;2023-02-28T04:29:51;15.43;;;6.80;;
19951;SDS011;10137;49.406;19.484;2023-02-28T04:32:19;11.83;;;6.17;;
19951;SDS011;10137;49.406;19.484;2023-02-28T04:34:48;10.33;;;6.20;;
19951;SDS011;10137;49.406;19.484;2023-02-28T04:37:16;11.33;;;6.30;;
19951;SDS011;10137;49.406;19.484;2023-02-28T04:39:44;12.47;;;6.47;;
19951;SDS011;10137;49.406;19.484;2023-02-28T04:42:13;10.40;;;6.37;;
19951;SDS011;10137;49.406;19.484;2023-02-28T04:44:42;10.90;;;6.00;;
19951;SDS011;10137;49.406;19.484;2023-02-28T04:47:10;12.87;;;6.13;;
19951;SDS011;10137;49.406;19.484;2023-02-28T04:49:38;10.50;;;5.60;;
19951;SDS011;10137;49.406;19.484;2023-02-28T04:52:07;11.50;;;5.50;;
19951;SDS011;10137;49.406;19.484;2023-02-28T04:54:36;17.70;;;7.80;;
19951;SDS011;10137;49.406;19.484;2023-02-28T04:57:05;28.10;;;16.03;;
19951;SDS011;10137;49.406;19.484;2023-02-28T04:59:35;13.63;;;9.30;;
19951;SDS011;10137;49.406;19.484;2023-02-28T05:02:06;16.10;;;8.47;;
19951;SDS011;10137;49.406;19.484;2023-02-28T05:04:37;15.30;;;8.80;;
19951;SDS011;10137;49.406;19.484;2023-02-28T05:07:07;20.40;;;6.77;;
19951;SDS011;10137;49.406;19.484;2023-02-28T05:09:36;29.67;;;16.07;;
19951;SDS011;10137;49.406;19.484;2023-02-28T05:12:04;20.40;;;10.10;;
19951;SDS011;10137;49.406;19.484;2023-02-28T05:14:32;17.70;;;8.87;;
19951;SDS011;10137;49.406;19.484;2023-02-28T05:17:02;20.27;;;8.03;;
19951;SDS011;10137;49.406;19.484;2023-02-28T05:19:30;16.60;;;9.03;;
19951;SDS011;10137;49.406;19.484;2023-02-28T05:21:58;29.93;;;15.37;;
19951;SDS011;10137;49.406;19.484;2023-02-28T05:24:27;16.00;;;9.07;;
19951;SDS011;10137;49.406;19.484;2023-02-28T05:26:55;14.20;;;7.57;;
19951;SDS011;10137;49.406;19.484;2023-02-28T05:29:25;14.63;;;7.70;;
19951;SDS011;10137;49.406;19.484;2023-02-28T05:32:01;12.63;;;6.87;;
19951;SDS011;10137;49.406;19.484;2023-02-28T05:34:32;15.10;;;7.30;;
19951;SDS011;10137;49.406;19.484;2023-02-28T05:37:03;11.20;;;6.37;;
19951;SDS011;10137;49.406;19.484;2023-02-28T05:39:33;16.63;;;7.70;;
19951;SDS011;10137;49.406;19.484;2023-02-28T05:42:01;11.73;;;6.50;;
19951;SDS011;10137;49.406;19.484;2023-02-28T05:44:30;10.10;;;6.03;;
19951;SDS011;10137;49.406;19.484;2023-02-28T05:46:59;9.73;;;5.30;;
19951;SDS011;10137;49.406;19.484;2023-02-28T05:49:29;11.60;;;6.23;;
19951;SDS011;10137;49.406;19.484;2023-02-28T05:51:57;8.90;;;5.80;;
19951;SDS011;10137;49.406;19.484;2023-02-28T05:54:26;8.47;;;5.40;;
19951;SDS011;10137;49.406;19.484;2023-02-28T05:56:56;13.77;;;6.77;;
19951;SDS011;10137;49.406;19.484;2023-02-28T05:59:24;11.90;;;5.83;;
19951;SDS011;10137;49.406;19.484;2023-02-28T06:01:53;15.03;;;7.67;;
19951;SDS011;10137;49.406;19.484;2023-02-28T06:04:23;12.63;;;7.23;;
19951;SDS011;10137;49.406;19.484;2023-02-28T06:06:50;14.40;;;6.20;;
19951;SDS011;10137;49.406;19.484;2023-02-28T06:09:18;11.73;;;5.73;;
19951;SDS011;10137;49.406;19.484;2023-02-28T06:11:47;14.23;;;6.47;;
19951;SDS011;10137;49.406;19.484;2023-02-28T06:14:16;11.87;;;6.13;;
19951;SDS011;10137;49.406;19.484;2023-02-28T06:16:44;13.43;;;6.23;;
19951;SDS011;10137;49.406;19.484;2023-02-28T06:19:12;16.83;;;6.60;;
19951;SDS011;10137;49.406;19.484;2023-02-28T06:21:42;22.23;;;7.07;;
19951;SDS011;10137;49.406;19.484;2023-02-28T06:24:10;17.07;;;7.87;;
19951;SDS011;10137;49.406;19.484;2023-02-28T06:26:37;48.87;;;8.90;;
19951;SDS011;10137;49.406;19.484;2023-02-28T06:29:06;27.37;;;8.07;;
19951;SDS011;10137;49.406;19.484;2023-02-28T06:31:35;23.77;;;7.50;;
19951;SDS011;10137;49.406;19.484;2023-02-28T06:34:03;29.60;;;7.87;;
19951;SDS011;10137;49.406;19.484;2023-02-28T06:36:33;21.30;;;9.87;;
19951;SDS011;10137;49.406;19.484;2023-02-28T06:55:43;17.70;;;7.73;;
19951;SDS011;10137;49.406;19.484;2023-02-28T06:58:10;15.53;;;7.53;;
19951;SDS011;10137;49.406;19.484;2023-02-28T07:00:40;18.37;;;10.17;;
19951;SDS011;10137;49.406;19.484;2023-02-28T07:03:08;18.40;;;8.63;;
19951;SDS011;10137;49.406;19.484;2023-02-28T07:05:36;12.77;;;6.93;;
19951;SDS011;10137;49.406;19.484;2023-02-28T07:08:03;15.13;;;8.60;;
19951;SDS011;10137;49.406;19.484;2023-02-28T07:10:31;10.23;;;6.03;;
19951;SDS011;10137;49.406;19.484;2023-02-28T07:13:01;15.17;;;7.33;;
19951;SDS011;10137;49.406;19.484;2023-02-28T07:15:29;14.33;;;7.97;;
19951;SDS011;10137;49.406;19.484;2023-02-28T07:17:56;14.50;;;8.30;;
19951;SDS011;10137;49.406;19.484;2023-02-28T07:20:23;25.70;;;11.80;;
19951;SDS011;10137;49.406;19.484;2023-02-28T07:22:51;21.00;;;10.00;;
19951;SDS011;10137;49.406;19.484;2023-02-28T07:25:21;31.17;;;11.17;;
19951;SDS011;10137;49.406;19.484;2023-02-28T07:27:49;20.83;;;9.57;;
19951;SDS011;10137;49.406;19.484;2023-02-28T07:30:17;22.33;;;11.87;;
19951;SDS011;10137;49.406;19.484;2023-02-28T07:32:45;17.23;;;9.37;;
19951;SDS011;10137;49.406;19.484;2023-02-28T07:35:12;16.10;;;9.03;;
19951;SDS011;10137;49.406;19.484;2023-02-28T07:37:40;17.00;;;9.13;;
19951;SDS011;10137;49.406;19.484;2023-02-28T07:40:09;17.47;;;8.47;;
19951;SDS011;10137;49.406;19.484;2023-02-28T07:42:38;19.97;;;8.73;;
19951;SDS011;10137;49.406;19.484;2023-02-28T07:45:06;21.87;;;9.07;;
19951;SDS011;10137;49.406;19.484;2023-02-28T07:47:37;16.90;;;7.97;;
19951;SDS011;10137;49.406;19.484;2023-02-28T07:50:05;13.77;;;6.73;;
19951;SDS011;10137;49.406;19.484;2023-02-28T07:52:33;14.07;;;6.40;;
19951;SDS011;10137;49.406;19.484;2023-02-28T07:55:00;10.90;;;6.97;;
19951;SDS011;10137;49.406;19.484;2023-02-28T07:57:27;12.77;;;6.33;;
19951;SDS011;10137;49.406;19.484;2023-02-28T07:59:54;16.70;;;6.40;;
19951;SDS011;10137;49.406;19.484;2023-02-28T08:02:21;14.30;;;7.40;;
19951;SDS011;10137;49.406;19.484;2023-02-28T08:04:50;13.33;;;6.30;;
19951;SDS011;10137;49.406;19.484;2023-02-28T08:07:18;22.13;;;6.70;;
19951;SDS011;10137;49.406;19.484;2023-02-28T08:09:48;16.87;;;6.70;;
19951;SDS011;10137;49.406;19.484;2023-02-28T08:12:15;10.83;;;5.43;;
19951;SDS011;10137;49.406;19.484;2023-02-28T08:14:42;14.03;;;5.90;;
19951;SDS011;10137;49.406;19.484;2023-02-28T08:17:11;18.37;;;6.87;;
19951;SDS011;10137;49.406;19.484;2023-02-28T08:19:41;17.53;;;6.43;;
19951;SDS011;10137;49.406;19.484;2023-02-28T08:22:10;14.63;;;7.47;;
19951;SDS011;10137;49.406;19.484;2023-02-28T08:24:38;13.47;;;6.43;;
19951;SDS011;10137;49.406;19.484;2023-02-28T08:27:09;10.67;;;5.63;;
19951;SDS011;10137;49.406;19.484;2023-02-28T08:29:38;11.80;;;6.20;;
19951;SDS011;10137;49.406;19.484;2023-02-28T08:32:05;14.87;;;7.63;;
19951;SDS011;10137;49.406;19.484;2023-02-28T08:34:33;12.23;;;5.17;;
19951;SDS011;10137;49.406;19.484;2023-02-28T08:37:05;11.23;;;5.87;;
19951;SDS011;10137;49.406;19.484;2023-02-28T08:39:35;13.60;;;7.27;;
19951;SDS011;10137;49.406;19.484;2023-02-28T08:42:02;15.33;;;8.70;;
19951;SDS011;10137;49.406;19.484;2023-02-28T08:44:30;9.33;;;4.93;;
19951;SDS011;10137;49.406;19.484;2023-02-28T08:46:57;17.47;;;5.33;;
19951;SDS011;10137;49.406;19.484;2023-02-28T08:49:24;9.27;;;5.00;;
19951;SDS011;10137;49.406;19.484;2023-02-28T08:51:53;13.80;;;5.27;;
19951;SDS011;10137;49.406;19.484;2023-02-28T08:54:22;11.53;;;5.10;;
19951;SDS011;10137;49.406;19.484;2023-02-28T08:56:58;9.53;;;5.10;;
19951;SDS011;10137;49.406;19.484;2023-02-28T08:59:25;12.23;;;5.20;;
19951;SDS011;10137;49.406;19.484;2023-02-28T09:01:53;8.90;;;4.60;;
19951;SDS011;10137;49.406;19.484;2023-02-28T09:04:25;9.83;;;4.67;;
19951;SDS011;10137;49.406;19.484;2023-02-28T09:06:55;11.57;;;4.77;;
19951;SDS011;10137;49.406;19.484;2023-02-28T09:09:23;9.90;;;5.47;;
19951;SDS011;10137;49.406;19.484;2023-02-28T09:11:50;14.10;;;6.90;;
19951;SDS011;10137;49.406;19.484;2023-02-28T09:14:18;8.97;;;4.47;;
19951;SDS011;10137;49.406;19.484;2023-02-28T09:16:45;9.13;;;4.43;;
19951;SDS011;10137;49.406;19.484;2023-02-28T09:19:12;7.70;;;4.80;;
19951;SDS011;10137;49.406;19.484;2023-02-28T09:21:40;12.87;;;6.93;;
19951;SDS011;10137;49.406;19.484;2023-02-28T09:24:07;10.80;;;6.10;;
19951;SDS011;10137;49.406;19.484;2023-02-28T09:26:36;10.17;;;5.90;;
19951;SDS011;10137;49.406;19.484;2023-02-28T09:29:06;11.50;;;5.40;;
19951;SDS011;10137;49.406;19.484;2023-02-28T09:31:35;11.47;;;4.50;;
19951;SDS011;10137;49.406;19.484;2023-02-28T09:34:03;9.23;;;4.47;;
19951;SDS011;10137;49.406;19.484;2023-02-28T09:36:30;20.30;;;5.57;;
19951;SDS011;10137;49.406;19.484;2023-02-28T09:38:58;10.07;;;4.73;;
19951;SDS011;10137;49.406;19.484;2023-02-28T09:41:28;8.93;;;4.20;;
19951;SDS011;10137;49.406;19.484;2023-02-28T09:44:02;11.10;;;4.87;;
19951;SDS011;10137;49.406;19.484;2023-02-28T09:46:32;17.30;;;9.50;;
19951;SDS011;10137;49.406;19.484;2023-02-28T09:49:06;15.07;;;8.03;;
19951;SDS011;10137;49.406;19.484;2023-02-28T09:51:43;8.80;;;4.20;;
19951;SDS011;10137;49.406;19.484;2023-02-28T09:54:17;19.17;;;7.83;;
19951;SDS011;10137;49.406;19.484;2023-02-28T09:56:48;6.60;;;4.33;;
19951;SDS011;10137;49.406;19.484;2023-02-28T09:59:23;8.30;;;4.03;;
19951;SDS011;10137;49.406;19.484;2023-02-28T10:02:04;9.37;;;4.13;;
19951;SDS011;10137;49.406;19.484;2023-02-28T10:04:46;8.20;;;3.63;;
19951;SDS011;10137;49.406;19.484;2023-02-28T10:07:22;8.93;;;4.20;;
19951;SDS011;10137;49.406;19.484;2023-02-28T10:10:03;8.13;;;4.80;;
19951;SDS011;10137;49.406;19.484;2023-02-28T10:12:37;9.77;;;4.50;;
19951;SDS011;10137;49.406;19.484;2023-02-28T10:15:09;8.17;;;4.87;;
19951;SDS011;10137;49.406;19.484;2023-02-28T10:17:47;8.33;;;4.20;;
19951;SDS011;10137;49.406;19.484;2023-02-28T10:20:20;12.63;;;4.00;;
19951;SDS011;10137;49.406;19.484;2023-02-28T10:22:57;8.83;;;4.23;;
19951;SDS011;10137;49.406;19.484;2023-02-28T10:25:33;10.97;;;4.20;;
19951;SDS011;10137;49.406;19.484;2023-02-28T10:28:07;12.83;;;4.70;;
19951;SDS011;10137;49.406;19.484;2023-02-28T10:30:38;18.73;;;5.13;;
19951;SDS011;10137;49.406;19.484;2023-02-28T10:33:15;6.07;;;3.60;;
19951;SDS011;10137;49.406;19.484;2023-02-28T10:35:46;9.67;;;4.23;;
19951;SDS011;10137;49.406;19.484;2023-02-28T10:38:18;7.07;;;4.00;;
19951;SDS011;10137;49.406;19.484;2023-02-28T10:40:51;8.17;;;4.60;;
19951;SDS011;10137;49.406;19.484;2023-02-28T10:43:32;7.03;;;4.50;;
19951;SDS011;10137;49.406;19.484;2023-02-28T10:46:01;10.77;;;4.83;;
19951;SDS011;10137;49.406;19.484;2023-02-28T10:48:33;15.57;;;5.77;;
19951;SDS011;10137;49.406;19.484;2023-02-28T10:51:02;9.57;;;4.23;;
19951;SDS011;10137;49.406;19.484;2023-02-28T10:53:32;20.67;;;4.97;;
19951;SDS011;10137;49.406;19.484;2023-02-28T10:56:02;9.37;;;4.53;;
19951;SDS011;10137;49.406;19.484;2023-02-28T10:58:42;7.57;;;4.73;;
19951;SDS011;10137;49.406;19.484;2023-02-28T11:01:17;6.67;;;4.47;;
19951;SDS011;10137;49.406;19.484;2023-02-28T11:03:46;9.00;;;5.10;;
19951;SDS011;10137;49.406;19.484;2023-02-28T11:06:21;25.37;;;5.83;;
19951;SDS011;10137;49.406;19.484;2023-02-28T11:08:52;18.77;;;5.47;;
19951;SDS011;10137;49.406;19.484;2023-02-28T11:11:21;12.13;;;5.10;;
19951;SDS011;10137;49.406;19.484;2023-02-28T11:13:51;12.77;;;4.60;;
19951;SDS011;10137;49.406;19.484;2023-02-28T11:16:21;18.37;;;4.80;;
19951;SDS011;10137;49.406;19.484;2023-02-28T11:18:58;9.30;;;4.90;;
19951;SDS011;10137;49.406;19.484;2023-02-28T11:21:27;7.93;;;5.33;;
19951;SDS011;10137;49.406;19.484;2023-02-28T11:23:57;9.40;;;4.97;;
19951;SDS011;10137;49.406;19.484;2023-02-28T11:26:38;7.53;;;4.80;;
19951;SDS011;10137;49.406;19.484;2023-02-28T11:29:17;9.43;;;5.30;;
19951;SDS011;10137;49.406;19.484;2023-02-28T11:34:59;14.07;;;5.37;;
19951;SDS011;10137;49.406;19.484;2023-02-28T11:37:31;14.30;;;6.03;;
19951;SDS011;10137;49.406;19.484;2023-02-28T11:39:59;10.10;;;5.60;;
19951;SDS011;10137;49.406;19.484;2023-02-28T11:42:32;14.47;;;6.07;;
19951;SDS011;10137;49.406;19.484;2023-02-28T11:45:12;8.43;;;5.50;;
19951;SDS011;10137;49.406;19.484;2023-02-28T11:48:02;9.77;;;5.40;;
19951;SDS011;10137;49.406;19.484;2023-02-28T11:50:44;10.67;;;7.07;;
19951;SDS011;10137;49.406;19.484;2023-02-28T11:53:27;11.37;;;6.77;;
19951;SDS011;10137;49.406;19.484;2023-02-28T11:56:08;11.70;;;8.13;;
19951;SDS011;10137;49.406;19.484;2023-02-28T11:58:45;10.60;;;5.73;;
19951;SDS011;10137;49.406;19.484;2023-02-28T12:01:30;11.83;;;6.57;;
19951;SDS011;10137;49.406;19.484;2023-02-28T12:04:16;15.20;;;6.20;;
19951;SDS011;10137;49.406;19.484;2023-02-28T12:06:56;13.13;;;5.73;;
19951;SDS011;10137;49.406;19.484;2023-02-28T12:09:34;9.43;;;5.60;;
19951;SDS011;10137;49.406;19.484;2023-02-28T12:12:12;10.73;;;5.77;;
19951;SDS011;10137;49.406;19.484;2023-02-28T12:15:01;12.47;;;6.17;;
19951;SDS011;10137;49.406;19.484;2023-02-28T12:18:03;10.60;;;5.33;;
19951;SDS011;10137;49.406;19.484;2023-02-28T12:20:41;10.50;;;5.47;;
19951;SDS011;10137;49.406;19.484;2023-02-28T12:26:25;26.23;;;7.20;;
19951;SDS011;10137;49.406;19.484;2023-02-28T12:29:04;16.97;;;6.87;;
19951;SDS011;10137;49.406;19.484;2023-02-28T12:31:42;13.57;;;6.33;;
19951;SDS011;10137;49.406;19.484;2023-02-28T12:34:19;9.63;;;5.73;;
19951;SDS011;10137;49.406;19.484;2023-02-28T12:36:48;8.77;;;5.50;;
19951;SDS011;10137;49.406;19.484;2023-02-28T12:39:20;11.00;;;5.90;;
19951;SDS011;10137;49.406;19.484;2023-02-28T12:41:53;11.47;;;5.67;;
19951;SDS011;10137;49.406;19.484;2023-02-28T12:44:26;11.37;;;6.03;;
19951;SDS011;10137;49.406;19.484;2023-02-28T12:47:10;7.87;;;5.67;;
19951;SDS011;10137;49.406;19.484;2023-02-28T12:49:45;14.43;;;5.97;;
19951;SDS011;10137;49.406;19.484;2023-02-28T12:52:19;13.43;;;5.63;;
19951;SDS011;10137;49.406;19.484;2023-02-28T12:54:53;14.03;;;6.27;;
19951;SDS011;10137;49.406;19.484;2023-02-28T12:57:34;12.47;;;5.63;;
19951;SDS011;10137;49.406;19.484;2023-02-28T13:00:09;9.20;;;5.93;;
19951;SDS011;10137;49.406;19.484;2023-02-28T13:05:49;9.97;;;5.77;;
19951;SDS011;10137;49.406;19.484;2023-02-28T13:11:40;13.47;;;5.80;;
19951;SDS011;10137;49.406;19.484;2023-02-28T13:14:22;15.47;;;6.27;;
19951;SDS011;10137;49.406;19.484;2023-02-28T13:16:56;10.50;;;5.73;;
19951;SDS011;10137;49.406;19.484;2023-02-28T13:19:26;8.13;;;5.67;;
19951;SDS011;10137;49.406;19.484;2023-02-28T13:21:55;10.93;;;6.07;;
19951;SDS011;10137;49.406;19.484;2023-02-28T13:24:37;10.20;;;5.80;;
19951;SDS011;10137;49.406;19.484;2023-02-28T13:30:02;11.17;;;6.00;;
19951;SDS011;10137;49.406;19.484;2023-02-28T13:39:00;14.03;;;5.50;;
19951;SDS011;10137;49.406;19.484;2023-02-28T13:41:48;12.77;;;6.10;;
19951;SDS011;10137;49.406;19.484;2023-02-28T13:44:18;12.77;;;5.77;;
19951;SDS011;10137;49.406;19.484;2023-02-28T13:52:48;13.13;;;5.53;;
19951;SDS011;10137;49.406;19.484;2023-02-28T13:55:27;9.60;;;4.90;;
19951;SDS011;10137;49.406;19.484;2023-02-28T13:58:02;10.10;;;5.90;;
19951;SDS011;10137;49.406;19.484;2023-02-28T14:00:55;8.97;;;5.53;;
19951;SDS011;10137;49.406;19.484;2023-02-28T14:03:40;9.13;;;5.40;;
19951;SDS011;10137;49.406;19.484;2023-02-28T14:06:22;8.67;;;5.87;;
19951;SDS011;10137;49.406;19.484;2023-02-28T14:08:54;9.93;;;6.03;;
19951;SDS011;10137;49.406;19.484;2023-02-28T14:11:29;10.47;;;5.93;;
19951;SDS011;10137;49.406;19.484;2023-02-28T14:13:58;12.20;;;6.17;;
19951;SDS011;10137;49.406;19.484;2023-02-28T14:16:28;13.60;;;5.80;;
19951;SDS011;10137;49.406;19.484;2023-02-28T14:19:09;8.73;;;5.50;;
19951;SDS011;10137;49.406;19.484;2023-02-28T14:21:39;13.63;;;6.50;;
19951;SDS011;10137;49.406;19.484;2023-02-28T14:30:25;11.43;;;5.70;;
19951;SDS011;10137;49.406;19.484;2023-02-28T14:33:25;14.27;;;5.77;;
19951;SDS011;10137;49.406;19.484;2023-02-28T14:36:03;11.83;;;6.17;;
19951;SDS011;10137;49.406;19.484;2023-02-28T14:38:40;14.87;;;5.80;;
19951;SDS011;10137;49.406;19.484;2023-02-28T14:41:14;15.00;;;5.87;;
19951;SDS011;10137;49.406;19.484;2023-02-28T14:43:54;12.17;;;6.60;;
19951;SDS011;10137;49.406;19.484;2023-02-28T14:46:22;12.97;;;5.40;;
19951;SDS011;10137;49.406;19.484;2023-02-28T14:48:54;13.10;;;5.87;;
19951;SDS011;10137;49.406;19.484;2023-02-28T14:51:22;12.93;;;5.77;;
19951;SDS011;10137;49.406;19.484;2023-02-28T14:53:51;12.53;;;6.10;;
19951;SDS011;10137;49.406;19.484;2023-02-28T14:56:23;13.10;;;5.83;;
19951;SDS011;10137;49.406;19.484;2023-02-28T14:58:55;8.67;;;5.30;;
19951;SDS011;10137;49.406;19.484;2023-02-28T15:01:23;8.87;;;5.70;;
19951;SDS011;10137;49.406;19.484;2023-02-28T15:03:59;8.23;;;5.30;;
19951;SDS011;10137;49.406;19.484;2023-02-28T15:06:29;19.17;;;6.93;;
19951;SDS011;10137;49.406;19.484;2023-02-28T15:09:06;11.53;;;5.70;;
19951;SDS011;10137;49.406;19.484;2023-02-28T15:11:37;16.00;;;6.43;;
19951;SDS011;10137;49.406;19.484;2023-02-28T15:14:14;29.03;;;6.63;;
19951;SDS011;10137;49.406;19.484;2023-02-28T15:16:46;10.27;;;6.03;;
19951;SDS011;10137;49.406;19.484;2023-02-28T15:19:19;16.17;;;6.30;;
19951;SDS011;10137;49.406;19.484;2023-02-28T15:21:55;14.83;;;5.93;;
19951;SDS011;10137;49.406;19.484;2023-02-28T15:24:28;13.70;;;5.47;;
19951;SDS011;10137;49.406;19.484;2023-02-28T15:27:03;10.93;;;5.97;;
19951;SDS011;10137;49.406;19.484;2023-02-28T15:29:42;11.83;;;5.50;;
19951;SDS011;10137;49.406;19.484;2023-02-28T15:32:21;13.47;;;5.83;;
19951;SDS011;10137;49.406;19.484;2023-02-28T15:34:56;17.23;;;5.80;;
19951;SDS011;10137;49.406;19.484;2023-02-28T15:37:28;13.10;;;5.53;;
19951;SDS011;10137;49.406;19.484;2023-02-28T15:40:05;11.30;;;5.77;;
19951;SDS011;10137;49.406;19.484;2023-02-28T15:42:37;15.97;;;10.97;;
19951;SDS011;10137;49.406;19.484;2023-02-28T15:47:54;67.47;;;33.07;;
19951;SDS011;10137;49.406;19.484;2023-02-28T15:50:23;134.07;;;75.10;;
19951;SDS011;10137;49.406;19.484;2023-02-28T15:52:53;87.77;;;45.67;;
19951;SDS011;10137;49.406;19.484;2023-02-28T15:55:21;73.10;;;51.50;;
19951;SDS011;10137;49.406;19.484;2023-02-28T15:57:50;27.53;;;20.97;;